Hof Plauen, Germany

2:56 PM CET on February 08, 2016 (GMT +0100)
Haidtanger | | Change Station
CLOSE
Current Station
Personal Weather Station
Location: Hof, BAYERN
Elevation: 1654 ft
Nearby Weather Stations

Elev 1654 ft 50.34 °N, 11.95 °E | Updated 21 seconds ago

Overcast
Overcast
46.0 °F
Feels Like 40 °F
N
14.3
Wind Variable Wind from SSW
Gusts 17.4 mph

Today
High -- | Low -- °F
--% Chance of Precip.
Yesterday
High -- | Low -- °F
Precip. -- in
Pressure 29.44 in
Visibility 6.2 miles
Clouds Scattered Clouds 3900 ft
Windchill 40 °F
Dew Point 34 °F
Humidity 63%
Rainfall 0.04 in
Snow Depth Not available.
7:37 AM 5:16 PM
Waning Crescent, 0% visible
METAR EDQM 081350Z 19019G29KT 9999 -RA SCT039 07/02 Q0997
Pressure 29.44 in
Visibility 6.2 miles
Clouds Scattered Clouds 3900 ft
Windchill 40 °F
Dew Point 34 °F
Humidity 63%
Rainfall 0.04 in
Snow Depth Not available.
7:37 AM 5:16 PM
Waning Crescent, 0% visible
METAR EDQM 081350Z 19019G29KT 9999 -RA SCT039 07/02 Q0997

10-Day Weather Forecast

Almanac

Astronomy

Feb. 08, 2016 Rise Set
Actual Time
Civil Twilight
Nautical Twilight
Astronomical Twilight
Moon
Length of Visible Light
Length of Day
Tomorrow will be .
, % of the Moon is Illuminated

Today's Extremes

Country Highs Country Lows

Community

WunderPhotos

Upload Photos

1,891,437 photos uploaded!

WunderBlog® & News

Nearby

Air Quality

  Air Quality AQ Index Pollutant
Not available.

Snow Depth

Station Depth Elevation

Earthquake Activity

City Distance Mag. Time & Date
Minimum magnitude displayed is 2.5.

Coastal Water Temperatures

Place Temperature

Stations

Nearby Weather Stations

Station Location Temp. Windchill Dew Point Humidity Wind Precip. Elev Updated Type